Time;durP1;ratioP1;P1;durP2;ratioP2;P2;SDS_P1;SDS_P2;PMS_P1;PMS_P2;Temp;Humidity;BMP_temperature;BMP_pressure;BME280_temperature;BME280_humidity;BME280_pressure;Samples;Min_cycle;Max_cycle;Signal;HPM_P1;HPM_P2
2024/01/23 10:19:39;;;;;;;1303.93;615.35;;;;;;;3.40;100.00;68882.63;5591927;31;649780;-85
2024/01/23 10:22:46;;;;;;;1206.88;558.47;;;;;;;3.42;100.00;68939.78;5569338;31;33903;-84
2024/01/23 10:25:49;;;;;;;1209.25;572.75;;;;;;;3.38;100.00;68879.75;5562820;31;34528;-85
2024/01/23 10:28:52;;;;;;;1235.57;588.03;;;;;;;3.62;100.00;68909.53;5561208;31;33345;-84
2024/01/23 10:31:56;;;;;;;1283.50;612.30;;;;;;;3.56;100.00;68899.94;5582217;31;33552;-84
2024/01/23 10:34:59;;;;;;;1246.70;576.15;;;;;;;3.83;100.00;68933.19;5584313;31;33802;-84
2024/01/23 10:38:03;;;;;;;1237.88;557.72;;;;;;;3.72;100.00;68918.44;5589651;31;33647;-84
2024/01/23 10:41:09;;;;;;;1601.45;782.22;;;;;;;3.87;100.00;68990.69;5587278;31;34267;-84
2024/01/23 10:44:15;;;;;;;1207.07;558.12;;;;;;;3.78;100.00;68928.00;5581900;31;33941;-84
2024/01/23 10:47:19;;;;;;;1656.15;820.90;;;;;;;3.90;100.00;68996.22;5579878;31;34144;-84
2024/01/23 10:50:22;;;;;;;1298.38;617.63;;;;;;;3.95;100.00;68999.34;5600293;31;34654;-84
2024/01/23 10:53:36;;;;;;;1288.07;589.05;;;;;;;4.16;100.00;68970.78;5590959;31;34294;-85
2024/01/23 10:56:44;;;;;;;1201.72;555.30;;;;;;;4.37;100.00;69050.00;5600482;31;34093;-85
2024/01/23 10:59:48;;;;;;;1198.68;585.10;;;;;;;4.36;100.00;68995.97;5595520;31;32752;-84
2024/01/23 11:02:58;;;;;;;1088.18;496.77;;;;;;;4.68;100.00;69027.09;5575468;31;32627;-85
2024/01/23 11:06:14;;;;;;;1179.90;543.80;;;;;;;4.84;100.00;69047.06;5571027;31;34672;-85
2024/01/23 11:09:26;;;;;;;1164.53;568.47;;;;;;;4.97;100.00;69059.44;5570841;32;34356;-84
2024/01/23 11:12:43;;;;;;;1147.50;545.40;;;;;;;5.05;100.00;69071.34;5564008;32;33765;-84
2024/01/23 11:15:47;;;;;;;1195.45;585.28;;;;;;;5.11;100.00;69083.59;5574076;31;33960;-85
2024/01/23 11:18:54;;;;;;;1162.30;537.17;;;;;;;5.31;100.00;69100.88;5556161;32;33585;-85
2024/01/23 11:22:02;;;;;;;1424.35;667.15;;;;;;;5.43;100.00;69170.38;5573586;32;33659;-85
2024/01/23 11:25:09;;;;;;;1433.23;695.87;;;;;;;5.57;100.00;69185.44;5569765;32;33678;-85
2024/01/23 11:28:34;;;;;;;1123.22;521.90;;;;;;;5.76;100.00;69153.84;5561153;32;34021;-85
2024/01/23 11:31:39;;;;;;;1312.72;626.17;;;;;;;5.89;100.00;69164.19;5548964;32;33905;-85
2024/01/23 11:34:42;;;;;;;1044.90;472.23;;;;;;;6.10;100.00;69246.28;5555906;32;34062;-85
2024/01/23 11:37:50;;;;;;;1123.57;533.95;;;;;;;6.25;100.00;69209.44;5537056;32;33530;-84
2024/01/23 11:40:56;;;;;;;1042.60;502.37;;;;;;;6.60;100.00;69246.75;5546596;32;33545;-84
2024/01/23 11:44:11;;;;;;;1100.32;510.55;;;;;;;6.98;100.00;69289.63;5562149;32;34248;-84
2024/01/23 11:47:15;;;;;;;1108.75;506.73;;;;;;;7.36;100.00;69333.06;5553115;32;34424;-83
2024/01/23 11:50:18;;;;;;;861.97;399.05;;;;;;;7.60;100.00;69360.31;5537429;32;33441;-84
2024/01/23 11:53:25;;;;;;;970.05;444.65;;;;;;;7.71;100.00;69369.84;5545406;32;33864;-84
2024/01/23 11:56:28;;;;;;;1064.85;499.12;;;;;;;8.12;100.00;69416.78;5552916;32;34696;-83
2024/01/23 11:59:31;;;;;;;1026.88;453.58;;;;;;;8.65;95.70;69479.22;5554126;32;33722;-83
2024/01/23 12:02:35;;;;;;;964.60;428.85;;;;;;;9.22;90.71;69600.22;5543676;32;33964;-84
2024/01/23 12:05:42;;;;;;;1030.35;492.50;;;;;;;9.51;86.77;69636.00;5568820;32;33849;-83
2024/01/23 12:08:45;;;;;;;1033.55;476.10;;;;;;;9.88;81.63;69621.22;5561093;32;34925;-84
2024/01/23 12:11:51;;;;;;;1268.22;607.95;;;;;;;9.54;81.55;69580.81;5573415;32;33638;-85
2024/01/23 12:14:53;;;;;;;1104.72;523.28;;;;;;;9.02;83.47;69577.56;5569838;32;33936;-84
2024/01/23 12:17:58;;;;;;;1047.20;475.98;;;;;;;8.74;84.07;69489.66;5570320;32;34195;-84
2024/01/23 12:21:03;;;;;;;1028.20;491.65;;;;;;;8.58;83.39;69468.44;5567173;32;34041;-84
2024/01/23 12:24:07;;;;;;;1061.45;482.17;;;;;;;9.16;83.24;69539.94;5544281;32;33655;-84
2024/01/23 12:27:20;;;;;;;1125.03;519.75;;;;;;;10.26;80.43;69662.13;5548554;32;34706;-89
2024/01/23 12:30:36;;;;;;;1224.97;555.87;;;;;;;10.39;78.81;69676.69;5539203;32;33591;-85
2024/01/23 12:33:39;;;;;;;997.87;449.58;;;;;;;8.70;89.34;69484.47;5560026;32;33495;-84
2024/01/23 12:36:42;;;;;;;1027.45;449.27;;;;;;;8.44;92.65;69458.09;5537192;32;35050;-85
2024/01/23 12:39:45;;;;;;;1128.50;490.98;;;;;;;8.40;92.30;69450.81;5551213;32;34372;-84
2024/01/23 12:42:50;;;;;;;975.28;466.48;;;;;;;7.97;95.31;69402.06;5539328;32;33724;-84
2024/01/23 12:45:55;;;;;;;995.12;450.40;;;;;;;7.28;100.00;69379.59;5542756;32;34467;-84
2024/01/23 12:49:07;;;;;;;1023.87;449.25;;;;;;;7.43;100.00;69341.19;5546951;32;33807;-84
2024/01/23 12:52:18;;;;;;;1078.38;461.90;;;;;;;7.39;100.00;69391.78;5549051;32;34103;-84
2024/01/23 12:55:21;;;;;;;1016.92;458.90;;;;;;;7.39;100.00;69391.78;5538880;32;34571;-83
2024/01/23 12:58:24;;;;;;;1250.07;594.83;;;;;;;7.90;96.74;69394.53;5546177;32;33841;-84
2024/01/23 13:01:27;;;;;;;1070.80;492.67;;;;;;;8.72;90.73;69487.38;5555938;32;34593;-84
2024/01/23 13:04:31;;;;;;;958.38;434.70;;;;;;;10.67;77.31;69768.00;5567007;32;33914;-84
2024/01/23 13:07:34;;;;;;;1080.75;509.33;;;;;;;11.01;70.72;69747.59;5567053;32;34330;-84
2024/01/23 13:10:38;;;;;;;1086.97;508.92;;;;;;;9.83;76.18;69615.41;5567495;32;33876;-84
2024/01/23 13:13:47;;;;;;;1586.97;761.97;;;;;;;9.00;81.71;69575.22;5536635;32;35226;-83
2024/01/23 13:16:50;;;;;;;1582.60;757.58;;;;;;;9.75;77.77;69604.63;5532267;32;33947;-84
2024/01/23 13:19:53;;;;;;;1249.60;572.87;;;;;;;10.09;75.53;69645.63;5541445;32;34648;-83
2024/01/23 13:22:57;;;;;;;1083.97;473.92;;;;;;;8.94;80.61;69511.72;5533571;32;33367;-83
2024/01/23 13:26:01;;;;;;;1151.25;482.27;;;;;;;8.74;82.67;69489.66;5543457;32;33937;-83
2024/01/23 13:29:09;;;;;;;1116.97;482.10;;;;;;;8.26;86.56;69431.88;5547867;32;34532;-83
2024/01/23 13:32:17;;;;;;;1077.97;498.55;;;;;;;7.97;89.39;69401.50;5534603;32;33573;-82
2024/01/23 13:35:21;;;;;;;1061.55;492.23;;;;;;;7.75;91.24;69379.22;5536086;32;35417;-88
2024/01/23 13:38:25;;;;;;;964.75;432.60;;;;;;;7.57;92.88;69412.09;5564710;32;34008;-88
2024/01/23 13:41:28;;;;;;;955.92;430.45;;;;;;;7.58;95.49;69357.44;5561413;32;34025;-85
2024/01/23 13:44:33;;;;;;;1011.67;462.75;;;;;;;7.60;94.64;69362.97;5534157;32;33659;-87
2024/01/23 13:47:42;;;;;;;1057.78;500.33;;;;;;;7.61;94.26;69416.75;5536357;32;33815;-85
2024/01/23 13:50:46;;;;;;;1999.90;999.90;;;;;;;7.58;94.74;69360.66;5537922;32;34890;-85
2024/01/23 13:53:49;;;;;;;1555.95;748.22;;;;;;;7.44;96.02;69398.16;5546466;32;33998;-86
2024/01/23 13:56:52;;;;;;;985.42;447.42;;;;;;;7.35;96.39;69387.16;5537166;32;34483;-85
2024/01/23 13:59:55;;;;;;;1075.35;500.30;;;;;;;7.18;98.12;69312.22;5546759;32;33774;-89
2024/01/23 14:02:58;;;;;;;1056.70;502.88;;;;;;;7.04;99.99;69297.16;5550488;32;34058;-89
2024/01/23 14:06:02;;;;;;;1097.93;524.53;;;;;;;6.96;100.00;69343.06;5549810;32;33994;-90
2024/01/23 14:09:08;;;;;;;997.78;451.35;;;;;;;6.92;100.00;69280.00;5550403;32;34285;-88
2024/01/23 14:12:11;;;;;;;956.47;445.55;;;;;;;6.94;100.00;69338.09;5550273;32;34817;-86
2024/01/23 14:15:18;;;;;;;991.15;477.65;;;;;;;6.77;100.00;69263.22;5546480;32;33791;-85
2024/01/23 14:18:21;;;;;;;1112.43;532.17;;;;;;;6.61;100.00;69245.28;5547690;32;34426;-86
2024/01/23 14:21:24;;;;;;;1172.65;568.30;;;;;;;6.66;100.00;69250.47;5533187;32;34533;-86
2024/01/23 14:24:27;;;;;;;1094.13;492.80;;;;;;;6.45;100.00;69227.31;5547477;32;33370;-86
2024/01/23 14:27:31;;;;;;;1038.85;481.05;;;;;;;6.32;100.00;69212.25;5547133;32;33577;-86
2024/01/23 14:30:35;;;;;;;1065.25;515.30;;;;;;;6.25;100.00;69204.16;5551416;32;34191;-85
2024/01/23 14:33:39;;;;;;;1550.57;766.80;;;;;;;6.02;100.00;69180.75;5561970;32;33897;-86
2024/01/23 14:36:43;;;;;;;1049.65;538.30;;;;;;;5.84;100.00;69163.69;5538732;32;34923;-85
2024/01/23 14:39:46;;;;;;;1554.80;770.20;;;;;;;5.67;100.00;69138.72;5525087;32;33873;-84
2024/01/23 14:42:52;;;;;;;1220.95;555.67;;;;;;;5.50;100.00;69122.28;5542428;32;34352;-85
2024/01/23 14:45:57;;;;;;;1383.70;687.47;;;;;;;5.34;100.00;69104.34;5547745;32;33938;-85
2024/01/23 14:49:00;;;;;;;1212.53;563.85;;;;;;;5.30;100.00;69101.78;5533203;32;33970;-85
2024/01/23 14:52:04;;;;;;;1134.03;551.10;;;;;;;5.13;100.00;69135.66;5540986;32;33733;-86
2024/01/23 14:55:08;;;;;;;1339.40;646.28;;;;;;;5.10;100.00;69073.94;5532810;32;34001;-86
2024/01/23 14:58:11;;;;;;;1197.63;610.05;;;;;;;4.98;100.00;69119.44;5532184;32;34390;-86
2024/01/23 15:01:14;;;;;;;1152.00;590.65;;;;;;;4.87;100.00;69106.13;5541777;32;34144;-86
2024/01/23 15:04:18;;;;;;;1203.20;554.12;;;;;;;4.85;100.00;69045.56;5524924;32;33536;-85
2024/01/23 15:07:22;;;;;;;1116.75;556.97;;;;;;;4.73;100.00;69032.84;5539690;32;34083;-86
2024/01/23 15:10:25;;;;;;;1089.53;524.80;;;;;;;4.72;100.00;69033.78;5528306;32;33961;-86
2024/01/23 15:13:28;;;;;;;1207.85;589.90;;;;;;;4.63;100.00;69023.94;5532207;32;33753;-86
2024/01/23 15:16:32;;;;;;;1213.15;562.78;;;;;;;4.69;100.00;69027.66;5533509;32;33988;-86
2024/01/23 15:19:35;;;;;;;1220.88;601.13;;;;;;;4.66;100.00;69027.41;5542249;32;33917;-85
2024/01/23 15:22:39;;;;;;;1145.55;535.63;;;;;;;4.60;100.00;69020.47;5549131;32;33950;-86
2024/01/23 15:25:42;;;;;;;1239.18;590.58;;;;;;;4.52;100.00;69011.81;5549053;32;33884;-86
2024/01/23 15:28:45;;;;;;;1311.40;605.85;;;;;;;4.44;100.00;68999.31;5546337;32;33665;-86
2024/01/23 15:31:49;;;;;;;1638.88;819.17;;;;;;;4.39;100.00;68998.84;5534677;32;34423;-85
2024/01/23 15:34:55;;;;;;;1166.50;525.33;;;;;;;4.48;100.00;69062.72;5547767;32;33956;-86
2024/01/23 15:37:58;;;;;;;1288.03;610.10;;;;;;;4.39;100.00;69052.31;5547966;32;34247;-86
2024/01/23 15:41:01;;;;;;;1207.07;581.63;;;;;;;4.37;100.00;69050.00;5548930;32;34407;-86
2024/01/23 15:44:05;;;;;;;1258.38;605.37;;;;;;;4.34;100.00;68990.41;5548377;32;34017;-87
2024/01/23 15:47:08;;;;;;;1267.43;625.20;;;;;;;4.38;100.00;68995.03;5546948;32;34576;-85
2024/01/23 15:50:11;;;;;;;1472.10;714.97;;;;;;;4.44;100.00;68999.91;5547799;32;33894;-86
2024/01/23 15:53:16;;;;;;;1314.00;604.55;;;;;;;4.50;100.00;69009.50;5551639;32;34191;-85
2024/01/23 15:56:20;;;;;;;1271.53;604.00;;;;;;;4.49;100.00;69007.75;5551005;32;34368;-85
2024/01/23 15:59:22;;;;;;;1226.82;589.17;;;;;;;4.46;100.00;69002.22;5554234;32;34486;-85
2024/01/23 16:02:26;;;;;;;1304.55;588.60;;;;;;;4.42;100.00;68997.03;5551838;32;34781;-86
2024/01/23 16:05:29;;;;;;;1249.38;602.65;;;;;;;4.49;100.00;69005.69;5551002;32;34035;-90
2024/01/23 16:08:32;;;;;;;1344.78;660.42;;;;;;;4.44;100.00;69005.19;5534508;32;34238;-90
2024/01/23 16:11:35;;;;;;;1237.30;595.17;;;;;;;4.58;100.00;69073.13;5539170;32;34866;-91
2024/01/23 16:14:37;;;;;;;1186.82;561.33;;;;;;;4.54;100.00;69069.66;5542205;32;34704;-87
2024/01/23 16:17:40;;;;;;;1450.03;717.33;;;;;;;4.39;100.00;68993.53;5545239;32;33954;-87
2024/01/23 16:20:47;;;;;;;1295.38;602.92;;;;;;;4.18;100.00;68970.44;5548316;32;34114;-86
2024/01/23 16:23:50;;;;;;;1314.40;618.95;;;;;;;4.18;100.00;69028.59;5550037;32;34394;-86
2024/01/23 16:26:55;;;;;;;1431.07;704.38;;;;;;;4.05;100.00;68955.41;5539905;32;34649;-86
2024/01/23 16:29:59;;;;;;;1325.95;668.80;;;;;;;3.92;100.00;68940.38;5546324;32;34722;-86
2024/01/23 16:33:02;;;;;;;1268.57;595.72;;;;;;;3.73;100.00;68974.50;5554641;32;35364;-86
2024/01/23 16:36:06;;;;;;;1399.18;650.08;;;;;;;3.71;100.00;68975.38;5523306;32;35154;-86
2024/01/23 16:39:10;;;;;;;1285.65;609.50;;;;;;;3.57;100.00;68959.22;5548516;32;34677;-85
2024/01/23 16:42:13;;;;;;;1205.90;547.70;;;;;;;3.39;100.00;68884.13;5549423;32;33963;-85
2024/01/23 16:45:16;;;;;;;1346.28;659.53;;;;;;;3.31;100.00;68874.88;5548462;32;33902;-85
2024/01/23 16:48:19;;;;;;;1217.15;574.15;;;;;;;3.17;100.00;68914.72;5546945;32;34795;-85
2024/01/23 16:51:22;;;;;;;1350.55;666.00;;;;;;;3.15;100.00;68911.81;5549768;32;33966;-85
2024/01/23 16:54:26;;;;;;;1329.13;618.60;;;;;;;3.23;100.00;68859.78;5560999;32;34129;-86
2024/01/23 16:57:29;;;;;;;1425.85;706.15;;;;;;;3.30;100.00;68873.13;5553002;32;35459;-85
2024/01/23 17:00:32;;;;;;;1389.93;687.92;;;;;;;3.31;100.00;68929.75;5548335;32;33951;-85
2024/01/23 17:03:35;;;;;;;1321.05;639.10;;;;;;;3.27;100.00;68867.03;5541649;32;34039;-85
2024/01/23 17:06:42;;;;;;;1682.43;833.83;;;;;;;3.21;100.00;68862.75;5545230;32;33877;-85
2024/01/23 17:09:45;;;;;;;1315.93;644.47;;;;;;;3.33;100.00;68874.53;5546615;32;34080;-85
2024/01/23 17:12:49;;;;;;;1384.13;664.22;;;;;;;3.28;100.00;68926.28;5528553;32;34766;-85
2024/01/23 17:15:53;;;;;;;1285.20;631.95;;;;;;;3.33;100.00;68874.53;5527681;32;34886;-85
2024/01/23 17:18:56;;;;;;;1349.20;631.05;;;;;;;3.24;100.00;68866.78;5528448;32;33805;-85
2024/01/23 17:21:59;;;;;;;1433.68;716.62;;;;;;;3.24;100.00;68864.13;5542241;32;33933;-84
2024/01/23 17:25:02;;;;;;;1375.53;688.58;;;;;;;3.37;100.00;68883.88;5529129;32;33941;-85
2024/01/23 17:28:05;;;;;;;1369.72;684.58;;;;;;;3.29;100.00;68874.63;5526964;32;34090;-84
2024/01/23 17:31:08;;;;;;;1381.75;705.55;;;;;;;3.26;100.00;68865.88;5527382;32;34690;-85
2024/01/23 17:34:14;;;;;;;1285.63;645.70;;;;;;;3.14;100.00;68908.03;5527518;32;33470;-85
2024/01/23 17:37:18;;;;;;;1357.03;701.05;;;;;;;3.15;100.00;68853.75;5529294;32;34370;-84
2024/01/23 17:40:21;;;;;;;1325.25;642.42;;;;;;;3.00;100.00;68836.44;5527641;32;33803;-85
2024/01/23 17:43:25;;;;;;;1354.72;695.17;;;;;;;3.00;100.00;68836.44;5527647;32;33929;-85
2024/01/23 17:46:28;;;;;;;1350.15;678.62;;;;;;;3.06;100.00;68843.38;5530872;32;32454;-84
2024/01/23 17:49:31;;;;;;;1332.07;674.85;;;;;;;3.13;100.00;68906.84;5551772;32;34020;-84
2024/01/23 17:52:35;;;;;;;1296.32;674.30;;;;;;;3.12;100.00;68850.88;5570637;32;34884;-84
2024/01/23 17:55:38;;;;;;;1391.40;679.83;;;;;;;3.05;100.00;68842.78;5566001;32;33976;-84
2024/01/23 17:58:41;;;;;;;1444.85;749.67;;;;;;;2.96;100.00;68890.44;5547368;32;34774;-85
2024/01/23 18:01:44;;;;;;;1508.70;759.00;;;;;;;2.86;100.00;68820.84;5531656;32;33531;-86
2024/01/23 18:04:51;;;;;;;1384.97;702.35;;;;;;;2.85;100.00;68824.97;5548897;32;33975;-86
2024/01/23 18:07:54;;;;;;;1323.25;638.72;;;;;;;2.86;100.00;68824.06;5546326;32;33726;-86
2024/01/23 18:10:57;;;;;;;1382.45;713.58;;;;;;;2.69;100.00;68860.41;5546397;32;33561;-86
2024/01/23 18:14:01;;;;;;;1386.15;689.03;;;;;;;2.56;100.00;68786.81;5534173;32;33890;-89
2024/01/23 18:17:05;;;;;;;1606.13;812.47;;;;;;;2.40;100.00;68766.88;5535678;32;34686;-90
2024/01/23 18:20:08;;;;;;;1367.72;700.87;;;;;;;2.29;100.00;68758.88;5544628;32;34428;-90
2024/01/23 18:23:12;;;;;;;1471.18;770.50;;;;;;;2.22;100.00;68749.31;5559461;32;34303;-86
2024/01/23 18:26:16;;;;;;;1346.60;702.95;;;;;;;2.13;100.00;68738.91;5560783;32;33535;-87
2024/01/23 18:29:21;;;;;;;1341.07;685.80;;;;;;;2.07;100.00;68786.75;5535365;32;34356;-85
2024/01/23 18:32:24;;;;;;;1383.80;714.08;;;;;;;1.98;100.00;68776.94;5546520;32;33616;-86
2024/01/23 18:35:28;;;;;;;1363.55;672.28;;;;;;;1.86;100.00;68763.66;5548408;32;34348;-86
2024/01/23 18:38:31;;;;;;;1375.65;732.78;;;;;;;1.81;100.00;68758.47;5547205;32;33826;-86
2024/01/23 18:41:36;;;;;;;1566.03;802.00;;;;;;;1.73;100.00;68748.66;5549336;32;34368;-85
2024/01/23 18:44:39;;;;;;;1464.13;764.10;;;;;;;1.64;100.00;68682.97;5551315;32;33909;-85
2024/01/23 18:47:42;;;;;;;1469.00;752.88;;;;;;;1.67;100.00;68683.78;5549652;32;33620;-86
2024/01/23 18:50:45;;;;;;;1487.60;777.50;;;;;;;1.64;100.00;68688.22;5538439;32;34092;-85
2024/01/23 18:53:49;;;;;;;1459.78;742.45;;;;;;;1.53;100.00;68668.81;5536692;32;33790;-86
2024/01/23 18:56:52;;;;;;;1396.18;741.72;;;;;;;1.42;100.00;68661.41;5549203;32;34123;-85
2024/01/23 18:59:55;;;;;;;1523.78;786.95;;;;;;;1.36;100.00;68652.41;5549149;32;34626;-86
2024/01/23 19:02:58;;;;;;;1602.38;844.97;;;;;;;1.30;100.00;68642.31;5548041;32;33639;-85
2024/01/23 19:06:03;;;;;;;1433.00;745.92;;;;;;;1.33;100.00;68648.38;5549517;32;33849;-86
2024/01/23 19:09:06;;;;;;;1702.10;865.87;;;;;;;1.33;100.00;68703.66;5549639;32;34183;-85
2024/01/23 19:12:15;;;;;;;1440.47;756.53;;;;;;;1.38;100.00;68653.59;5549710;32;33508;-86
2024/01/23 19:15:19;;;;;;;1475.18;818.45;;;;;;;1.42;100.00;68655.56;5559793;32;34601;-86
2024/01/23 19:18:24;;;;;;;1427.63;779.55;;;;;;;1.34;100.00;68646.91;5560979;32;34820;-85
2024/01/23 19:21:27;;;;;;;1518.20;826.42;;;;;;;1.32;100.00;68647.81;5549378;32;33880;-86
2024/01/23 19:24:31;;;;;;;1423.53;740.83;;;;;;;1.32;100.00;68647.81;5549225;32;34396;-86
2024/01/23 19:27:34;;;;;;;1449.22;733.25;;;;;;;1.43;100.00;68717.81;5549507;32;33776;-86
2024/01/23 19:30:37;;;;;;;1381.10;728.33;;;;;;;1.45;100.00;68720.13;5548452;32;34702;-86
2024/01/23 19:33:41;;;;;;;1508.70;808.70;;;;;;;1.44;100.00;68660.50;5547868;32;34199;-86
2024/01/23 19:36:44;;;;;;;1494.88;814.03;;;;;;;1.37;100.00;68653.00;5549547;32;33579;-85
2024/01/23 19:39:47;;;;;;;1492.35;805.92;;;;;;;1.41;100.00;68660.25;5553262;32;34810;-85
